Time;durP1;ratioP1;P1;durP2;ratioP2;P2;SDS_P1;SDS_P2;PMS_P1;PMS_P2;Temp;Humidity;BMP_temperature;BMP_pressure;BME280_temperature;BME280_humidity;BME280_pressure;Samples;Min_cycle;Max_cycle;Signal;HPM_P1;HPM_P2
2023/07/24 00:08:39;;;;;;;14.43;4.13;;;;;;;30.27;35.42;100633.53;20916420;28;20045;-74
2023/07/24 00:18:54;;;;;;;15.18;4.45;;;;;;;30.10;35.93;100623.81;20924345;28;20420;-75
2023/07/24 00:29:17;;;;;;;19.02;4.28;;;;;;;29.89;36.04;100626.09;20904011;28;20445;-75
2023/07/24 00:39:41;;;;;;;14.57;3.83;;;;;;;29.57;36.83;100627.34;20928237;28;20055;-74
2023/07/24 00:50:05;;;;;;;16.67;3.70;;;;;;;29.45;36.99;100628.16;20899112;28;20064;-75
2023/07/24 01:00:30;;;;;;;13.73;4.30;;;;;;;29.27;37.49;100639.22;20889155;28;20106;-75
2023/07/24 01:10:54;;;;;;;14.35;4.07;;;;;;;29.22;37.72;100644.06;20879368;28;20061;-76
2023/07/24 01:21:29;;;;;;;15.95;4.45;;;;;;;29.03;37.96;100640.75;20896779;28;20048;-74
2023/07/24 01:31:34;;;;;;;13.63;4.28;;;;;;;28.92;38.16;100643.28;20895912;28;20054;-74
2023/07/24 01:41:57;;;;;;;18.40;4.18;;;;;;;28.77;38.34;100638.78;20911115;28;20040;-75
2023/07/24 01:52:21;;;;;;;13.02;4.68;;;;;;;28.80;38.55;100634.06;20905598;28;20095;-74
2023/07/24 02:02:44;;;;;;;15.88;4.45;;;;;;;28.75;38.49;100640.75;20893889;28;20059;-74
2023/07/24 02:13:09;;;;;;;15.73;4.10;;;;;;;28.62;39.19;100635.13;20899606;28;20056;-74
2023/07/24 02:23:31;;;;;;;12.52;4.00;;;;;;;28.50;39.72;100646.75;20911814;28;20060;-74
2023/07/24 02:33:55;;;;;;;15.80;4.15;;;;;;;28.26;40.56;100631.94;20876718;28;20102;-74
2023/07/24 02:44:18;;;;;;;13.15;4.45;;;;;;;28.30;41.10;100628.06;20894500;28;20501;-74
2023/07/24 02:54:42;;;;;;;16.23;3.85;;;;;;;28.39;42.69;100609.38;20878056;28;20052;-74
2023/07/24 03:05:05;;;;;;;17.35;4.22;;;;;;;28.45;43.39;100629.84;20883952;28;20049;-74
2023/07/24 03:15:29;;;;;;;17.52;4.28;;;;;;;28.29;43.63;100661.63;20888364;28;20071;-74
2023/07/24 03:25:52;;;;;;;17.65;4.88;;;;;;;28.18;44.37;100654.09;20926485;28;20052;-74
2023/07/24 03:36:17;;;;;;;15.70;4.93;;;;;;;28.19;45.38;100661.28;20906646;28;20048;-74
2023/07/24 03:46:39;;;;;;;16.20;4.40;;;;;;;28.13;46.43;100648.06;20905503;28;20439;-74
2023/07/24 03:57:03;;;;;;;15.82;4.10;;;;;;;28.27;48.01;100655.41;20891541;28;20106;-74
2023/07/24 04:07:26;;;;;;;15.82;4.63;;;;;;;28.53;50.34;100661.03;20927537;28;20045;-74
2023/07/24 04:17:50;;;;;;;20.70;4.95;;;;;;;29.02;52.80;100665.31;20906686;28;20405;-75
2023/07/24 04:28:13;;;;;;;17.70;4.53;;;;;;;29.49;53.54;100684.09;20957846;28;20076;-74
2023/07/24 04:38:37;;;;;;;17.55;4.53;;;;;;;30.09;56.15;100690.16;20880226;28;20072;-75
2023/07/24 04:49:00;;;;;;;14.77;4.13;;;;;;;30.78;57.28;100702.72;20883487;28;20049;-74
2023/07/24 04:59:24;;;;;;;18.48;4.60;;;;;;;31.41;56.16;100704.63;20884342;28;20052;-75
2023/07/24 05:09:47;;;;;;;11.98;3.42;;;;;;;32.23;55.29;100713.09;20879703;28;20132;-75
2023/07/24 05:20:12;;;;;;;18.20;4.28;;;;;;;31.92;65.66;100711.78;20893129;28;20053;-74
2023/07/24 05:30:34;;;;;;;14.77;3.58;;;;;;;32.57;63.68;100722.34;20888254;28;20098;-74
2023/07/24 05:40:59;;;;;;;15.85;3.92;;;;;;;33.61;52.32;100723.25;20907930;28;20049;-74
2023/07/24 05:51:21;;;;;;;13.80;3.55;;;;;;;34.68;44.52;100716.09;20985018;28;20044;-74
2023/07/24 06:01:45;;;;;;;16.67;4.05;;;;;;;35.60;39.75;100728.16;20945619;28;20106;-74
2023/07/24 06:12:09;;;;;;;15.63;4.30;;;;;;;36.73;37.35;100721.41;20902981;28;20036;-74
2023/07/24 06:22:33;;;;;;;11.55;4.18;;;;;;;37.56;35.59;100722.56;20944941;28;20055;-74
2023/07/24 06:32:55;;;;;;;11.43;4.00;;;;;;;38.24;34.44;100719.38;20968673;28;20065;-74
2023/07/24 06:43:19;;;;;;;18.67;5.72;;;;;;;38.63;33.61;100725.50;20912349;28;20048;-74
2023/07/24 06:53:21;;;;;;;12.07;3.80;;;;;;;38.55;33.20;100721.78;20943547;28;20094;-74
2023/07/24 07:03:46;;;;;;;11.52;3.58;;;;;;;38.66;33.20;100725.19;20947835;28;20125;-74
2023/07/24 07:14:09;;;;;;;12.77;4.10;;;;;;;38.79;33.41;100738.63;20911708;28;20076;-74
2023/07/24 07:24:33;;;;;;;13.77;4.45;;;;;;;38.83;33.43;100755.72;20909907;28;20135;-74
2023/07/24 07:34:55;;;;;;;15.07;4.82;;;;;;;39.16;33.05;100756.88;20925841;28;20078;-74
2023/07/24 07:45:19;;;;;;;11.65;4.28;;;;;;;39.19;33.60;100751.06;20977322;28;20055;-73
2023/07/24 07:55:41;;;;;;;13.23;4.75;;;;;;;38.91;33.78;100753.91;20924841;28;20053;-75
2023/07/24 08:06:00;;;;;;;14.00;4.97;;;;;;;39.58;33.13;100751.53;20903262;28;20088;-73
2023/07/24 08:16:23;;;;;;;15.10;5.25;;;;;;;39.30;32.70;100762.72;20932481;28;20053;-74
2023/07/24 08:26:27;;;;;;;16.30;5.65;;;;;;;39.16;32.97;100759.66;20932010;28;20037;-74
2023/07/24 08:36:49;;;;;;;;;;;;;;;39.27;33.95;100748.34;20908806;28;20151;-74
2023/07/24 08:47:16;;;;;;;18.45;7.18;;;;;;;39.46;33.35;100734.31;20986879;28;19950;-75
2023/07/24 08:57:38;;;;;;;16.67;6.47;;;;;;;39.55;33.02;100751.84;20985883;28;20086;-75
2023/07/24 09:08:02;;;;;;;12.55;5.97;;;;;;;39.90;33.13;100759.16;20958367;28;20045;-75
2023/07/24 09:18:25;;;;;;;13.35;6.70;;;;;;;39.99;32.38;100747.94;20953833;28;20059;-75
2023/07/24 09:28:54;;;;;;;16.13;6.55;;;;;;;40.08;32.36;100746.94;20993040;28;20056;-74
2023/07/24 09:39:24;;;;;;;14.18;7.45;;;;;;;40.31;31.71;100736.16;20916245;28;20531;-75
2023/07/24 09:49:28;;;;;;;14.32;6.93;;;;;;;40.21;31.99;100730.75;20958419;28;20041;-74
2023/07/24 09:59:53;;;;;;;15.25;6.10;;;;;;;40.10;32.01;100728.28;20889351;28;20053;-75
2023/07/24 10:10:17;;;;;;;16.13;5.82;;;;;;;39.84;33.29;100722.81;20907384;28;20111;-75
2023/07/24 10:20:41;;;;;;;17.42;7.05;;;;;;;39.82;33.33;100716.59;20958534;28;20371;-74
2023/07/24 10:31:08;;;;;;;18.17;7.28;;;;;;;40.04;32.31;100708.72;20879734;28;20563;-75
2023/07/24 10:41:36;;;;;;;17.83;7.88;;;;;;;40.08;32.39;100704.59;20919546;28;20501;-75
2023/07/24 10:52:01;;;;;;;15.40;7.40;;;;;;;40.04;32.61;100700.44;20905617;28;20060;-75
2023/07/24 11:02:24;;;;;;;19.15;7.20;;;;;;;40.24;32.75;100704.63;20896624;28;20057;-76
2023/07/24 11:12:50;;;;;;;18.08;6.15;;;;;;;40.22;33.05;100679.03;20881861;28;20139;-76
2023/07/24 11:23:13;;;;;;;18.88;7.65;;;;;;;40.14;32.94;100667.94;20888959;28;20049;-75
2023/07/24 11:33:38;;;;;;;15.87;7.10;;;;;;;39.81;33.83;100665.06;20926958;28;20073;-75
2023/07/24 11:44:00;;;;;;;12.57;7.35;;;;;;;39.88;34.39;100673.56;20918902;28;20099;-76
2023/07/24 11:54:25;;;;;;;15.87;7.67;;;;;;;39.65;34.90;100677.94;20912056;28;20499;-74
2023/07/24 12:04:48;;;;;;;16.90;7.03;;;;;;;39.20;35.98;100665.22;20905986;28;20100;-75
2023/07/24 12:15:13;;;;;;;16.25;7.03;;;;;;;38.99;36.39;100671.13;20910000;28;20052;-77
2023/07/24 12:25:36;;;;;;;20.75;7.20;;;;;;;38.80;36.47;100671.28;20895803;28;20064;-75
2023/07/24 12:36:01;;;;;;;12.85;5.97;;;;;;;38.87;35.41;100660.47;20913325;28;20044;-74
2023/07/24 12:46:23;;;;;;;;;;;;;;;38.80;34.93;100643.66;20900697;28;20079;-75
2023/07/24 12:56:48;;;;;;;17.45;7.78;;;;;;;38.74;34.03;100637.94;20918541;28;19928;-76
2023/07/24 13:07:11;;;;;;;13.57;7.57;;;;;;;38.76;34.69;100630.34;20894357;28;20128;-74
2023/07/24 13:17:36;;;;;;;11.77;6.82;;;;;;;38.29;34.20;100617.69;20890051;28;20056;-75
2023/07/24 13:27:58;;;;;;;14.05;8.00;;;;;;;38.25;33.50;100601.63;20888264;28;20049;-76
2023/07/24 13:38:22;;;;;;;12.95;7.20;;;;;;;38.01;33.06;100579.31;20918517;28;20099;-75
2023/07/24 13:48:45;;;;;;;15.83;8.00;;;;;;;37.66;34.38;100583.75;20874676;28;20140;-75
2023/07/24 13:59:10;;;;;;;18.25;7.40;;;;;;;37.82;36.79;100583.91;20908791;28;20059;-77
2023/07/24 14:09:32;;;;;;;14.40;7.83;;;;;;;37.89;38.97;100574.00;20888054;28;20049;-77
2023/07/24 14:19:57;;;;;;;13.05;7.03;;;;;;;37.83;40.67;100577.38;20893295;28;20497;-76
2023/07/24 14:30:21;;;;;;;14.32;7.25;;;;;;;37.93;39.58;100580.09;20875226;28;20041;-75
2023/07/24 14:40:46;;;;;;;16.73;7.32;;;;;;;37.70;37.12;100565.88;20890407;28;20401;-75
2023/07/24 14:51:08;;;;;;;;;;;;;;;37.59;37.22;100568.84;20898221;28;20060;-75
2023/07/24 15:01:33;;;;;;;15.18;6.75;;;;;;;37.08;36.75;100552.81;20900370;28;20015;-74
2023/07/24 15:11:58;;;;;;;10.65;5.88;;;;;;;36.31;37.51;100555.75;20914116;28;20049;-75
2023/07/24 15:22:22;;;;;;;15.13;6.53;;;;;;;35.38;38.19;100542.44;20933372;28;20684;-75
2023/07/24 15:32:46;;;;;;;14.38;6.93;;;;;;;34.53;40.47;100552.00;20928049;28;20562;-74
2023/07/24 15:43:30;;;;;;;13.00;7.28;;;;;;;34.03;45.98;100554.47;20915134;28;20049;-75
2023/07/24 15:53:53;;;;;;;18.17;7.95;;;;;;;33.79;57.40;100557.44;20908885;28;20049;-75
2023/07/24 16:04:17;;;;;;;16.00;8.30;;;;;;;33.40;67.89;100555.28;20889283;28;20076;-74
2023/07/24 16:14:40;;;;;;;13.77;7.80;;;;;;;33.19;68.64;100561.50;20910690;28;20467;-74
2023/07/24 16:25:05;;;;;;;15.75;8.13;;;;;;;33.00;68.37;100558.50;20924407;28;20048;-76
2023/07/24 16:35:28;;;;;;;16.77;8.00;;;;;;;32.76;66.67;100553.13;20920952;28;20053;-75
2023/07/24 16:45:52;;;;;;;12.90;6.88;;;;;;;32.51;59.59;100546.97;20908053;28;20436;-74
2023/07/24 16:56:15;;;;;;;12.68;6.75;;;;;;;32.31;58.38;100562.22;20893665;28;20053;-74
2023/07/24 17:06:41;;;;;;;15.05;6.93;;;;;;;32.08;61.05;100553.06;20852817;28;20490;-75
2023/07/24 17:17:05;;;;;;;15.75;6.93;;;;;;;31.78;66.83;100558.09;20912862;28;20053;-75
2023/07/24 17:27:30;;;;;;;13.52;6.28;;;;;;;31.53;71.73;100550.88;20909994;28;20080;-75
2023/07/24 17:37:52;;;;;;;13.80;6.55;;;;;;;31.27;72.77;100542.78;20951151;28;20044;-74
2023/07/24 17:48:17;;;;;;;15.98;6.45;;;;;;;31.05;72.51;100548.06;20971313;28;20074;-75
2023/07/24 17:58:40;;;;;;;15.55;6.38;;;;;;;30.88;73.97;100567.47;20948444;28;20102;-75
2023/07/24 18:09:05;;;;;;;16.73;6.60;;;;;;;30.77;77.52;100561.94;20921801;28;20056;-74
2023/07/24 18:19:28;;;;;;;13.27;6.00;;;;;;;30.58;75.57;100586.91;20946154;28;20057;-75
2023/07/24 18:29:52;;;;;;;16.55;6.70;;;;;;;30.48;68.62;100591.19;20956219;28;20079;-74
2023/07/24 18:40:15;;;;;;;12.70;6.10;;;;;;;30.35;71.76;100576.69;20924007;28;20417;-74
2023/07/24 18:50:39;;;;;;;13.43;6.05;;;;;;;30.20;73.74;100600.41;20892149;28;20060;-74
2023/07/24 19:01:02;;;;;;;17.30;5.95;;;;;;;30.08;76.77;100629.34;20896232;28;20053;-74
2023/07/24 19:11:26;;;;;;;10.05;6.03;;;;;;;30.02;73.62;100642.50;20919421;28;20055;-74
2023/07/24 19:21:43;;;;;;;14.40;6.18;;;;;;;29.91;75.26;100635.03;20876445;28;20060;-74
2023/07/24 19:32:08;;;;;;;12.98;6.00;;;;;;;29.79;77.03;100654.91;20862841;28;20432;-73
2023/07/24 19:42:31;;;;;;;21.00;13.32;;;;;;;29.65;78.45;100672.16;20900309;28;20072;-74
2023/07/24 19:52:56;;;;;;;12.63;5.70;;;;;;;29.52;79.82;100662.16;20900774;28;20056;-74
2023/07/24 20:03:19;;;;;;;13.93;5.50;;;;;;;29.44;79.92;100665.38;20912032;28;20048;-74
2023/07/24 20:13:43;;;;;;;13.13;5.40;;;;;;;29.35;81.48;100663.22;20891296;28;20061;-74
2023/07/24 20:24:10;;;;;;;13.18;5.95;;;;;;;29.29;80.65;100660.84;20880566;28;20056;-74
2023/07/24 20:34:29;;;;;;;10.70;4.90;;;;;;;29.17;81.36;100658.91;20871603;28;20077;-74
2023/07/24 20:44:53;;;;;;;10.38;5.00;;;;;;;29.07;80.09;100661.38;20923888;28;20086;-74
2023/07/24 20:55:18;;;;;;;12.38;4.80;;;;;;;29.02;79.29;100652.59;20915210;28;20810;-74
2023/07/24 21:05:41;;;;;;;10.40;4.38;;;;;;;28.99;79.72;100663.69;20926811;28;20095;-74
2023/07/24 21:16:05;;;;;;;12.27;4.88;;;;;;;28.97;79.54;100662.00;20916088;28;20049;-74
2023/07/24 21:26:28;;;;;;;12.65;4.85;;;;;;;28.86;81.33;100670.84;20924779;28;20049;-74
2023/07/24 21:36:52;;;;;;;13.55;4.32;;;;;;;28.77;81.74;100660.53;20928701;28;20075;-74
2023/07/24 21:47:16;;;;;;;14.13;5.15;;;;;;;28.66;82.81;100652.13;20930677;28;20092;-74
2023/07/24 21:57:40;;;;;;;9.20;4.22;;;;;;;28.47;83.70;100646.94;20879442;28;20397;-74
2023/07/24 22:08:02;;;;;;;11.50;4.63;;;;;;;28.39;80.74;100630.22;20894688;28;20033;-74
2023/07/24 22:18:28;;;;;;;13.15;4.50;;;;;;;28.36;82.20;100622.25;20878473;28;20126;-74
2023/07/24 22:28:50;;;;;;;10.38;5.00;;;;;;;28.36;84.92;100609.56;20935914;28;20098;-74
2023/07/24 22:39:17;;;;;;;11.68;4.47;;;;;;;28.29;85.78;100616.31;20963070;28;20090;-74
2023/07/24 22:49:39;;;;;;;13.07;4.97;;;;;;;28.24;87.52;100601.28;20937485;28;20631;-74
2023/07/24 23:00:05;;;;;;;12.70;4.55;;;;;;;28.18;88.49;100591.66;20895367;28;20541;-73
2023/07/24 23:10:28;;;;;;;7.95;3.97;;;;;;;28.18;87.55;100585.34;20882819;28;20495;-74
2023/07/24 23:20:52;;;;;;;9.30;3.90;;;;;;;28.19;84.56;100571.69;20882650;28;20049;-74
2023/07/24 23:31:14;;;;;;;11.25;4.03;;;;;;;28.10;87.70;100553.19;20928670;28;20613;-74
2023/07/24 23:41:39;;;;;;;8.30;4.15;;;;;;;27.97;90.28;100517.78;20987137;28;20059;-74
2023/07/24 23:52:02;;;;;;;9.35;4.15;;;;;;;27.97;88.84;100503.31;20958468;28;20041;-74
